Weather History for Cody, WY

Change the Weather History Date:

Tuesday, November 27, 2012

  Actual Average Record
Temperature  
Mean Temperature 32 °F -  
Max Temperature 46 °F 35 °F 66 °F (1950)
Min Temperature 17 °F 15 °F -14 °F (1985)
Degree Days  
Heating Degree Days 34    
Moisture  
Dew Point 22 °F    
Average Humidity 63    
Maximum Humidity 93    
Minimum Humidity 37    
Precipitation  
Precipitation 0.00 in - - ()
Sea Level Pressure  
Sea Level Pressure 30.08 in    
Wind  
Wind Speed 5 mph (WNW)    
Max Wind Speed 18 mph    
Max Gust Speed 23 mph    
Visibility 10 miles    
Events      
Averages and records for this station are not official NWS values.
T = Trace of Precipitation, MM = Missing Value Source: NWS Daily Summary

Daily Weather History Graph

Daily Weather History Graph

Search for Another Location

Airport:

Trip Planner

Search our weather history database for the weather conditions in past years. The results will help you decide how hot, cold, wet, or windy it might be!

Date:

Astronomy

Nov. 27, 2012 Rise Set
Actual Time 7:28 AM MST 4:39 PM MST
Civil Twilight 6:55 AM MST 5:11 PM MST
Nautical Twilight 6:19 AM MST 5:47 PM MST
Astronomical Twilight 5:44 AM MST 6:22 PM MST
Moon 4:13 PM MST (11/27) 6:35 AM MST (11/27)
Length of Visible Light 10h 15m
Length of Day
9h 10m
Waxing Gibbous, 99% of the Moon is Illuminated
Nov 27
Waxing Gibbous
Nov 28
Full
Dec 6
Last Quarter
Dec 13
New
Dec 19
First Quarter

Hourly Weather History & Observations

Time (MST) Temp. Windchill Dew Point Humidity Pressure Visibility Wind Dir Wind Speed Gust Speed Precip Events Conditions
12:15 AM 17.6 °F 12.3 °F 15.8 °F 93% 30.09 in 10.0 mi South 3.5 mph - N/A   Clear
12:35 AM 19.4 °F 10.4 °F 15.8 °F 86% 30.08 in 10.0 mi SSE 6.9 mph - N/A   Clear
12:55 AM 17.6 °F 9.3 °F 12.2 °F 79% 30.07 in 10.0 mi South 5.8 mph - N/A   Clear
1:55 AM 17.6 °F 12.3 °F 12.2 °F 79% 30.07 in 10.0 mi South 3.5 mph - N/A   Clear
2:15 AM 17.6 °F - 14.0 °F 86% 30.07 in 10.0 mi Calm Calm - N/A   Clear
2:35 AM 17.6 °F 9.3 °F 14.0 °F 86% 30.07 in 10.0 mi SSE 5.8 mph - N/A   Clear
2:55 AM 17.6 °F - 12.2 °F 79% 30.06 in 10.0 mi Calm Calm - N/A   Clear
3:15 AM 17.6 °F 10.7 °F 12.2 °F 79% 30.06 in 10.0 mi SSE 4.6 mph - N/A   Clear
3:35 AM 19.4 °F - 12.2 °F 74% 30.06 in 10.0 mi Calm Calm - N/A   Clear
3:55 AM 19.4 °F 11.5 °F 12.2 °F 74% 30.05 in 10.0 mi SSE 5.8 mph - N/A   Clear
4:35 AM 23.0 °F 18.4 °F 14.0 °F 68% 30.05 in 10.0 mi South 3.5 mph - N/A   Clear
4:55 AM 26.6 °F 22.6 °F 17.6 °F 69% 30.04 in 10.0 mi NW 3.5 mph - N/A   Clear
5:35 AM 32.0 °F - 17.6 °F 55% 30.05 in 10.0 mi Calm Calm - N/A   Clear
5:55 AM 33.8 °F - 19.4 °F 56% 30.06 in 10.0 mi Calm Calm - N/A   Clear
6:15 AM 33.8 °F 28.6 °F 17.6 °F 52% 30.05 in 10.0 mi NE 5.8 mph - N/A   Clear
6:35 AM 32.0 °F - 19.4 °F 60% 30.06 in 10.0 mi Calm Calm - N/A   Clear
6:55 AM 33.8 °F - 17.6 °F 52% 30.06 in 10.0 mi Calm Calm - N/A   Clear
7:15 AM 30.2 °F - 19.4 °F 64% 30.07 in 10.0 mi Calm Calm - N/A   Clear
7:35 AM 33.8 °F - 19.4 °F 56% 30.07 in 10.0 mi Calm Calm - N/A   Clear
7:55 AM 35.6 °F 30.7 °F 17.6 °F 48% 30.07 in 10.0 mi North 5.8 mph - N/A   Clear
8:15 AM 35.6 °F 31.7 °F 17.6 °F 48% 30.08 in 10.0 mi NNW 4.6 mph - N/A   Clear
8:35 AM 35.6 °F 29.9 °F 19.4 °F 52% 30.09 in 10.0 mi WNW 6.9 mph 17.3 mph N/A   Clear
8:55 AM 39.2 °F 33.6 °F 19.4 °F 45% 30.09 in 10.0 mi West 8.1 mph 17.3 mph N/A   Clear
9:15 AM 41.0 °F 37.1 °F 19.4 °F 42% 30.09 in 10.0 mi West 5.8 mph 19.6 mph N/A   Clear
9:35 AM 41.0 °F 38.0 °F 21.2 °F 45% 30.10 in 10.0 mi WSW 4.6 mph - N/A   Clear
9:55 AM 41.0 °F - 21.2 °F 45% 30.10 in 10.0 mi Calm Calm - N/A   Clear
10:15 AM 42.8 °F - 21.2 °F 42% 30.10 in 10.0 mi Calm Calm - N/A   Clear
10:35 AM 44.6 °F - 19.4 °F 37% 30.10 in 10.0 mi Calm Calm - N/A   Clear
10:55 AM 41.0 °F 38.0 °F 26.6 °F 57% 30.10 in 10.0 mi NNE 4.6 mph - N/A   Clear
11:15 AM 39.2 °F - 26.6 °F 61% 30.10 in 10.0 mi Calm Calm - N/A   Clear
11:35 AM 39.2 °F 37.0 °F 26.6 °F 61% 30.10 in 10.0 mi ENE 3.5 mph - N/A   Clear
11:55 AM 41.0 °F 35.8 °F 28.4 °F 61% 30.08 in 10.0 mi WSW 8.1 mph - N/A   Clear
12:15 PM 46.4 °F 42.4 °F 24.8 °F 43% 30.08 in 10.0 mi WNW 8.1 mph 17.3 mph N/A   Clear
12:35 PM 46.4 °F 41.5 °F 23.0 °F 40% 30.07 in 10.0 mi WSW 10.4 mph - N/A   Clear
12:55 PM 46.4 °F 41.5 °F 23.0 °F 40% 30.07 in 10.0 mi West 10.4 mph 17.3 mph N/A   Clear
1:15 PM 41.0 °F 36.4 °F 26.6 °F 57% 30.07 in 10.0 mi ENE 6.9 mph - N/A   Clear
1:35 PM 42.8 °F 41.1 °F 28.4 °F 57% 30.08 in 10.0 mi North 3.5 mph - N/A   Clear
1:55 PM 37.4 °F 31.4 °F 26.6 °F 65% 30.08 in 10.0 mi ENE 8.1 mph - N/A   Clear
2:15 PM 37.4 °F 30.3 °F 28.4 °F 70% 30.08 in 10.0 mi NE 10.4 mph - N/A   Clear
2:35 PM 35.6 °F 27.5 °F 28.4 °F 75% 30.09 in 10.0 mi NE 11.5 mph - N/A   Clear
2:55 PM 37.4 °F 29.8 °F 28.4 °F 70% 30.09 in 10.0 mi NE 11.5 mph - N/A   Clear
3:15 PM 37.4 °F 29.8 °F 28.4 °F 70% 30.10 in 10.0 mi NE 11.5 mph - N/A   Clear
3:35 PM 37.4 °F 30.3 °F 28.4 °F 70% 30.10 in 10.0 mi NE 10.4 mph - N/A   Clear
3:55 PM 37.4 °F 32.1 °F 28.4 °F 70% 30.10 in 10.0 mi NE 6.9 mph - N/A   Clear
5:15 PM 37.4 °F 27.5 °F 26.6 °F 65% 30.10 in 10.0 mi SW 18.4 mph 23.0 mph N/A   Clear
5:35 PM 35.6 °F 29.2 °F 26.6 °F 70% 30.11 in 10.0 mi WNW 8.1 mph - N/A   Clear
5:55 PM 33.8 °F 27.0 °F 26.6 °F 75% 30.10 in 10.0 mi NW 8.1 mph - N/A   Clear
6:15 PM 35.6 °F 29.9 °F 26.6 °F 70% 30.10 in 10.0 mi NW 6.9 mph - N/A   Clear
6:35 PM 37.4 °F 30.3 °F 26.6 °F 65% 30.10 in 10.0 mi West 10.4 mph - N/A   Clear
6:55 PM 32.0 °F 28.7 °F 24.8 °F 75% 30.10 in 10.0 mi NNW 3.5 mph - N/A   Clear
7:15 PM 33.8 °F 30.8 °F 26.6 °F 75% 30.10 in 10.0 mi NW 3.5 mph - N/A   Clear
7:35 PM 30.2 °F 25.4 °F 26.6 °F 86% 30.10 in 10.0 mi NNE 4.6 mph - N/A   Clear
7:55 PM 30.2 °F 23.4 °F 26.6 °F 86% 30.11 in 10.0 mi ENE 6.9 mph - N/A   Clear
8:15 PM 35.6 °F 32.8 °F 24.8 °F 65% 30.11 in 10.0 mi East 3.5 mph - N/A   Clear
8:35 PM 33.8 °F 30.8 °F 24.8 °F 70% 30.10 in 10.0 mi NNE 3.5 mph - N/A   Clear
8:55 PM 37.4 °F 34.9 °F 24.8 °F 60% 30.10 in 10.0 mi West 3.5 mph - N/A   Clear
9:15 PM 35.6 °F 31.7 °F 24.8 °F 65% 30.10 in 10.0 mi East 4.6 mph - N/A   Clear
9:55 PM 33.8 °F 26.4 °F 24.8 °F 70% 30.10 in 10.0 mi WSW 9.2 mph - N/A   Clear
10:15 PM 35.6 °F 28.0 °F 24.8 °F 65% 30.10 in 10.0 mi SSW 10.4 mph 16.1 mph N/A   Clear
10:55 PM 44.6 °F 38.1 °F 19.4 °F 37% 30.10 in 10.0 mi SW 13.8 mph 21.9 mph N/A   Clear
11:15 PM 37.4 °F 28.9 °F 23.0 °F 56% 30.10 in 10.0 mi South 13.8 mph - N/A   Clear
11:35 PM 39.2 °F 31.6 °F 21.2 °F 49% 30.10 in 10.0 mi SW 12.7 mph 21.9 mph N/A   Clear
11:55 PM 41.0 °F 33.1 °F 21.2 °F 45% 30.10 in 10.0 mi SW 15.0 mph 21.9 mph N/A   Clear